sensor_id;sensor_type;location;lat;lon;timestamp;P1;durP1;ratioP1;P2;durP2;ratioP2
36225;SDS011;22268;52.010;4.716;2023-05-07T12:47:28;12.45;;;11.05;;
36225;SDS011;22268;52.010;4.716;2023-05-07T12:49:54;14.65;;;11.45;;
36225;SDS011;22268;52.010;4.716;2023-05-07T12:52:19;14.00;;;11.15;;
36225;SDS011;22268;52.010;4.716;2023-05-07T12:54:45;13.00;;;11.18;;
36225;SDS011;22268;52.010;4.716;2023-05-07T12:57:10;13.13;;;10.35;;
36225;SDS011;22268;52.010;4.716;2023-05-07T12:59:41;16.42;;;11.25;;
36225;SDS011;22268;52.010;4.716;2023-05-07T13:02:07;13.52;;;10.23;;
36225;SDS011;22268;52.010;4.716;2023-05-07T13:04:32;17.65;;;11.63;;
36225;SDS011;22268;52.010;4.716;2023-05-07T13:06:57;14.13;;;11.52;;
36225;SDS011;22268;52.010;4.716;2023-05-07T13:09:23;13.98;;;11.93;;
36225;SDS011;22268;52.010;4.716;2023-05-07T13:11:48;15.68;;;12.20;;
36225;SDS011;22268;52.010;4.716;2023-05-07T13:14:13;17.42;;;11.00;;
36225;SDS011;22268;52.010;4.716;2023-05-07T13:16:38;15.65;;;11.43;;
36225;SDS011;22268;52.010;4.716;2023-05-07T13:19:04;15.13;;;11.68;;
36225;SDS011;22268;52.010;4.716;2023-05-07T13:21:29;16.75;;;11.57;;
36225;SDS011;22268;52.010;4.716;2023-05-07T13:23:56;15.65;;;10.60;;
36225;SDS011;22268;52.010;4.716;2023-05-07T13:26:22;14.98;;;10.18;;
36225;SDS011;22268;52.010;4.716;2023-05-07T13:28:48;12.53;;;9.67;;
36225;SDS011;22268;52.010;4.716;2023-05-07T13:31:13;17.62;;;9.75;;
36225;SDS011;22268;52.010;4.716;2023-05-07T13:33:38;17.23;;;9.82;;
36225;SDS011;22268;52.010;4.716;2023-05-07T13:36:04;9.90;;;8.87;;
36225;SDS011;22268;52.010;4.716;2023-05-07T13:38:30;12.80;;;9.93;;
36225;SDS011;22268;52.010;4.716;2023-05-07T13:40:55;12.57;;;8.57;;
36225;SDS011;22268;52.010;4.716;2023-05-07T13:43:21;17.20;;;10.07;;
36225;SDS011;22268;52.010;4.716;2023-05-07T13:45:46;14.87;;;9.87;;
36225;SDS011;22268;52.010;4.716;2023-05-07T13:48:11;15.80;;;9.48;;
36225;SDS011;22268;52.010;4.716;2023-05-07T13:50:36;13.90;;;10.80;;
36225;SDS011;22268;52.010;4.716;2023-05-07T13:53:01;14.45;;;10.90;;
36225;SDS011;22268;52.010;4.716;2023-05-07T13:55:28;14.65;;;12.02;;
36225;SDS011;22268;52.010;4.716;2023-05-07T13:58:00;16.27;;;11.98;;
36225;SDS011;22268;52.010;4.716;2023-05-07T14:00:26;19.90;;;14.90;;
36225;SDS011;22268;52.010;4.716;2023-05-07T14:02:51;17.83;;;14.55;;
36225;SDS011;22268;52.010;4.716;2023-05-07T14:05:16;20.67;;;15.60;;
36225;SDS011;22268;52.010;4.716;2023-05-07T14:07:42;26.45;;;17.10;;
36225;SDS011;22268;52.010;4.716;2023-05-07T14:10:07;21.10;;;16.10;;
36225;SDS011;22268;52.010;4.716;2023-05-07T14:12:32;27.67;;;19.05;;
36225;SDS011;22268;52.010;4.716;2023-05-07T14:14:58;23.02;;;18.67;;
36225;SDS011;22268;52.010;4.716;2023-05-07T14:17:23;29.30;;;20.67;;
36225;SDS011;22268;52.010;4.716;2023-05-07T14:19:51;21.50;;;18.67;;
36225;SDS011;22268;52.010;4.716;2023-05-07T14:22:18;22.27;;;18.92;;
36225;SDS011;22268;52.010;4.716;2023-05-07T14:24:44;30.48;;;19.45;;
36225;SDS011;22268;52.010;4.716;2023-05-07T14:27:10;24.33;;;19.70;;
36225;SDS011;22268;52.010;4.716;2023-05-07T14:29:35;28.93;;;19.73;;
36225;SDS011;22268;52.010;4.716;2023-05-07T14:32:01;29.15;;;20.00;;
36225;SDS011;22268;52.010;4.716;2023-05-07T14:34:27;27.50;;;19.77;;
36225;SDS011;22268;52.010;4.716;2023-05-07T14:36:52;25.53;;;20.27;;
36225;SDS011;22268;52.010;4.716;2023-05-07T14:39:17;26.50;;;20.30;;
36225;SDS011;22268;52.010;4.716;2023-05-07T14:41:42;28.00;;;19.55;;
36225;SDS011;22268;52.010;4.716;2023-05-07T14:44:07;26.83;;;19.23;;
36225;SDS011;22268;52.010;4.716;2023-05-07T14:46:33;20.40;;;16.62;;
36225;SDS011;22268;52.010;4.716;2023-05-07T14:48:58;23.87;;;17.17;;
36225;SDS011;22268;52.010;4.716;2023-05-07T14:51:23;20.48;;;16.23;;
36225;SDS011;22268;52.010;4.716;2023-05-07T14:53:49;19.67;;;16.73;;
36225;SDS011;22268;52.010;4.716;2023-05-07T14:56:15;18.15;;;15.93;;
36225;SDS011;22268;52.010;4.716;2023-05-07T14:58:40;18.85;;;14.65;;
36225;SDS011;22268;52.010;4.716;2023-05-07T15:01:05;16.95;;;14.20;;
36225;SDS011;22268;52.010;4.716;2023-05-07T15:03:30;18.95;;;14.02;;
36225;SDS011;22268;52.010;4.716;2023-05-07T15:05:56;14.48;;;12.07;;
36225;SDS011;22268;52.010;4.716;2023-05-07T15:08:21;17.33;;;10.88;;
36225;SDS011;22268;52.010;4.716;2023-05-07T15:10:47;13.40;;;9.40;;
36225;SDS011;22268;52.010;4.716;2023-05-07T15:13:12;14.95;;;10.10;;
36225;SDS011;22268;52.010;4.716;2023-05-07T15:15:41;10.93;;;9.13;;
36225;SDS011;22268;52.010;4.716;2023-05-07T15:18:06;15.02;;;11.57;;
36225;SDS011;22268;52.010;4.716;2023-05-07T15:20:32;13.52;;;10.95;;
36225;SDS011;22268;52.010;4.716;2023-05-07T15:22:57;14.90;;;11.12;;
36225;SDS011;22268;52.010;4.716;2023-05-07T15:25:23;19.50;;;14.27;;
36225;SDS011;22268;52.010;4.716;2023-05-07T15:27:48;16.90;;;14.60;;
36225;SDS011;22268;52.010;4.716;2023-05-07T15:30:13;15.98;;;14.18;;
36225;SDS011;22268;52.010;4.716;2023-05-07T15:32:39;23.77;;;17.33;;
36225;SDS011;22268;52.010;4.716;2023-05-07T15:35:05;18.60;;;14.30;;
36225;SDS011;22268;52.010;4.716;2023-05-07T15:37:31;19.02;;;16.05;;
36225;SDS011;22268;52.010;4.716;2023-05-07T15:39:56;20.67;;;15.48;;
36225;SDS011;22268;52.010;4.716;2023-05-07T15:42:21;19.55;;;13.90;;
36225;SDS011;22268;52.010;4.716;2023-05-07T15:44:46;21.23;;;15.20;;
36225;SDS011;22268;52.010;4.716;2023-05-07T15:47:13;19.23;;;15.70;;
36225;SDS011;22268;52.010;4.716;2023-05-07T15:49:39;23.27;;;15.57;;
36225;SDS011;22268;52.010;4.716;2023-05-07T15:52:04;22.90;;;15.88;;
36225;SDS011;22268;52.010;4.716;2023-05-07T15:54:29;21.05;;;15.48;;
36225;SDS011;22268;52.010;4.716;2023-05-07T15:56:55;19.12;;;16.60;;
36225;SDS011;22268;52.010;4.716;2023-05-07T15:59:20;19.55;;;15.85;;
36225;SDS011;22268;52.010;4.716;2023-05-07T16:01:45;17.45;;;13.73;;
36225;SDS011;22268;52.010;4.716;2023-05-07T16:04:10;19.23;;;14.30;;
36225;SDS011;22268;52.010;4.716;2023-05-07T16:06:36;19.83;;;14.35;;
36225;SDS011;22268;52.010;4.716;2023-05-07T16:09:01;16.95;;;15.05;;
36225;SDS011;22268;52.010;4.716;2023-05-07T16:11:27;22.17;;;16.33;;
36225;SDS011;22268;52.010;4.716;2023-05-07T16:13:54;18.85;;;16.27;;
36225;SDS011;22268;52.010;4.716;2023-05-07T16:16:19;20.75;;;17.77;;
36225;SDS011;22268;52.010;4.716;2023-05-07T16:18:45;24.50;;;18.50;;
36225;SDS011;22268;52.010;4.716;2023-05-07T16:21:10;22.00;;;17.40;;
36225;SDS011;22268;52.010;4.716;2023-05-07T16:23:36;17.70;;;14.85;;
36225;SDS011;22268;52.010;4.716;2023-05-07T16:26:01;20.27;;;15.43;;
36225;SDS011;22268;52.010;4.716;2023-05-07T16:28:26;19.87;;;14.18;;
36225;SDS011;22268;52.010;4.716;2023-05-07T16:30:51;16.40;;;13.32;;
36225;SDS011;22268;52.010;4.716;2023-05-07T16:33:17;18.70;;;13.73;;
36225;SDS011;22268;52.010;4.716;2023-05-07T16:35:42;17.73;;;14.45;;
36225;SDS011;22268;52.010;4.716;2023-05-07T16:38:11;19.23;;;15.07;;
36225;SDS011;22268;52.010;4.716;2023-05-07T16:40:37;15.23;;;12.95;;
36225;SDS011;22268;52.010;4.716;2023-05-07T16:43:02;16.10;;;12.93;;
36225;SDS011;22268;52.010;4.716;2023-05-07T16:45:28;22.10;;;13.77;;
36225;SDS011;22268;52.010;4.716;2023-05-07T16:47:53;16.37;;;12.80;;
36225;SDS011;22268;52.010;4.716;2023-05-07T16:50:18;23.47;;;14.77;;
36225;SDS011;22268;52.010;4.716;2023-05-07T16:52:43;16.27;;;14.57;;
36225;SDS011;22268;52.010;4.716;2023-05-07T16:55:08;20.50;;;13.10;;
36225;SDS011;22268;52.010;4.716;2023-05-07T16:57:34;17.42;;;13.30;;
36225;SDS011;22268;52.010;4.716;2023-05-07T16:59:59;16.42;;;13.93;;
36225;SDS011;22268;52.010;4.716;2023-05-07T17:02:24;18.67;;;14.07;;
36225;SDS011;22268;52.010;4.716;2023-05-07T17:04:49;19.00;;;13.20;;
36225;SDS011;22268;52.010;4.716;2023-05-07T17:07:14;16.92;;;14.43;;
36225;SDS011;22268;52.010;4.716;2023-05-07T17:09:40;20.33;;;15.30;;
36225;SDS011;22268;52.010;4.716;2023-05-07T17:12:06;19.67;;;15.23;;
36225;SDS011;22268;52.010;4.716;2023-05-07T17:14:31;18.80;;;13.27;;
36225;SDS011;22268;52.010;4.716;2023-05-07T17:16:56;20.88;;;16.23;;
36225;SDS011;22268;52.010;4.716;2023-05-07T17:19:21;18.27;;;15.38;;
36225;SDS011;22268;52.010;4.716;2023-05-07T17:21:47;18.75;;;15.70;;
36225;SDS011;22268;52.010;4.716;2023-05-07T17:24:12;22.55;;;17.20;;
36225;SDS011;22268;52.010;4.716;2023-05-07T17:26:37;23.30;;;18.65;;
36225;SDS011;22268;52.010;4.716;2023-05-07T17:29:03;21.55;;;16.98;;
36225;SDS011;22268;52.010;4.716;2023-05-07T17:31:28;24.55;;;17.85;;
36225;SDS011;22268;52.010;4.716;2023-05-07T17:33:53;25.48;;;17.30;;
36225;SDS011;22268;52.010;4.716;2023-05-07T17:36:18;27.50;;;19.05;;
36225;SDS011;22268;52.010;4.716;2023-05-07T17:38:44;21.40;;;17.02;;
36225;SDS011;22268;52.010;4.716;2023-05-07T17:41:09;22.55;;;18.35;;
36225;SDS011;22268;52.010;4.716;2023-05-07T17:43:34;29.05;;;21.05;;
36225;SDS011;22268;52.010;4.716;2023-05-07T17:46:00;27.70;;;22.02;;
36225;SDS011;22268;52.010;4.716;2023-05-07T17:48:25;23.70;;;21.07;;
36225;SDS011;22268;52.010;4.716;2023-05-07T17:50:50;26.27;;;21.45;;
36225;SDS011;22268;52.010;4.716;2023-05-07T17:53:15;30.83;;;24.27;;
36225;SDS011;22268;52.010;4.716;2023-05-07T17:55:41;27.48;;;23.67;;
36225;SDS011;22268;52.010;4.716;2023-05-07T17:58:06;24.52;;;22.10;;
36225;SDS011;22268;52.010;4.716;2023-05-07T18:00:32;28.15;;;23.80;;
36225;SDS011;22268;52.010;4.716;2023-05-07T18:02:57;28.02;;;21.73;;
36225;SDS011;22268;52.010;4.716;2023-05-07T18:05:24;22.45;;;19.02;;
36225;SDS011;22268;52.010;4.716;2023-05-07T18:07:49;22.67;;;19.70;;
36225;SDS011;22268;52.010;4.716;2023-05-07T18:10:14;26.12;;;22.33;;
36225;SDS011;22268;52.010;4.716;2023-05-07T18:12:40;32.13;;;22.87;;
36225;SDS011;22268;52.010;4.716;2023-05-07T18:15:05;21.67;;;19.37;;
36225;SDS011;22268;52.010;4.716;2023-05-07T18:17:30;26.40;;;20.10;;
36225;SDS011;22268;52.010;4.716;2023-05-07T18:19:55;21.43;;;19.17;;
36225;SDS011;22268;52.010;4.716;2023-05-07T18:22:21;25.67;;;20.95;;
36225;SDS011;22268;52.010;4.716;2023-05-07T18:24:46;22.45;;;20.02;;
36225;SDS011;22268;52.010;4.716;2023-05-07T18:27:11;20.42;;;17.75;;
36225;SDS011;22268;52.010;4.716;2023-05-07T18:29:37;26.08;;;20.42;;
36225;SDS011;22268;52.010;4.716;2023-05-07T18:32:02;23.95;;;19.65;;
36225;SDS011;22268;52.010;4.716;2023-05-07T18:34:27;23.75;;;19.50;;
36225;SDS011;22268;52.010;4.716;2023-05-07T18:36:53;28.03;;;21.43;;
36225;SDS011;22268;52.010;4.716;2023-05-07T18:39:18;24.47;;;21.77;;
36225;SDS011;22268;52.010;4.716;2023-05-07T18:41:43;23.02;;;19.10;;
36225;SDS011;22268;52.010;4.716;2023-05-07T18:44:09;24.48;;;21.85;;
36225;SDS011;22268;52.010;4.716;2023-05-07T18:46:34;30.55;;;25.33;;
36225;SDS011;22268;52.010;4.716;2023-05-07T18:49:00;26.80;;;23.92;;
36225;SDS011;22268;52.010;4.716;2023-05-07T18:51:25;28.08;;;25.17;;
36225;SDS011;22268;52.010;4.716;2023-05-07T18:53:51;28.65;;;25.73;;
36225;SDS011;22268;52.010;4.716;2023-05-07T18:56:16;38.22;;;28.12;;
36225;SDS011;22268;52.010;4.716;2023-05-07T18:58:41;32.40;;;28.33;;
36225;SDS011;22268;52.010;4.716;2023-05-07T19:01:06;31.60;;;26.80;;
36225;SDS011;22268;52.010;4.716;2023-05-07T19:03:32;33.88;;;27.15;;
36225;SDS011;22268;52.010;4.716;2023-05-07T19:05:57;33.40;;;28.58;;
36225;SDS011;22268;52.010;4.716;2023-05-07T19:08:22;41.27;;;32.63;;
36225;SDS011;22268;52.010;4.716;2023-05-07T19:10:48;32.75;;;28.17;;
36225;SDS011;22268;52.010;4.716;2023-05-07T19:13:13;35.80;;;30.35;;
36225;SDS011;22268;52.010;4.716;2023-05-07T19:15:38;31.65;;;28.30;;
36225;SDS011;22268;52.010;4.716;2023-05-07T19:18:03;29.70;;;26.50;;
36225;SDS011;22268;52.010;4.716;2023-05-07T19:20:28;34.20;;;26.58;;
36225;SDS011;22268;52.010;4.716;2023-05-07T19:22:54;39.63;;;29.27;;
36225;SDS011;22268;52.010;4.716;2023-05-07T19:25:19;35.60;;;30.10;;
36225;SDS011;22268;52.010;4.716;2023-05-07T19:27:44;34.53;;;31.00;;
36225;SDS011;22268;52.010;4.716;2023-05-07T19:30:11;36.22;;;30.10;;
36225;SDS011;22268;52.010;4.716;2023-05-07T19:32:37;41.97;;;31.08;;
36225;SDS011;22268;52.010;4.716;2023-05-07T19:35:02;38.50;;;32.55;;
36225;SDS011;22268;52.010;4.716;2023-05-07T19:37:27;41.28;;;31.58;;
36225;SDS011;22268;52.010;4.716;2023-05-07T19:39:54;36.20;;;31.98;;
36225;SDS011;22268;52.010;4.716;2023-05-07T19:42:19;36.33;;;30.77;;
36225;SDS011;22268;52.010;4.716;2023-05-07T19:44:44;38.97;;;31.02;;
36225;SDS011;22268;52.010;4.716;2023-05-07T19:47:09;38.25;;;30.85;;
36225;SDS011;22268;52.010;4.716;2023-05-07T19:49:35;36.75;;;30.80;;
36225;SDS011;22268;52.010;4.716;2023-05-07T19:52:00;42.92;;;34.17;;
36225;SDS011;22268;52.010;4.716;2023-05-07T19:54:25;39.88;;;34.15;;
36225;SDS011;22268;52.010;4.716;2023-05-07T19:56:50;35.20;;;31.35;;
36225;SDS011;22268;52.010;4.716;2023-05-07T19:59:15;33.28;;;29.70;;
36225;SDS011;22268;52.010;4.716;2023-05-07T20:01:41;29.55;;;25.33;;
36225;SDS011;22268;52.010;4.716;2023-05-07T20:04:06;28.02;;;24.08;;
36225;SDS011;22268;52.010;4.716;2023-05-07T20:06:31;28.87;;;25.80;;
36225;SDS011;22268;52.010;4.716;2023-05-07T20:08:56;28.90;;;25.95;;
36225;SDS011;22268;52.010;4.716;2023-05-07T20:11:22;25.40;;;22.77;;
36225;SDS011;22268;52.010;4.716;2023-05-07T20:13:47;27.92;;;25.15;;
36225;SDS011;22268;52.010;4.716;2023-05-07T20:16:12;28.40;;;23.35;;
36225;SDS011;22268;52.010;4.716;2023-05-07T20:18:37;24.30;;;21.90;;
36225;SDS011;22268;52.010;4.716;2023-05-07T20:21:03;25.77;;;22.70;;
36225;SDS011;22268;52.010;4.716;2023-05-07T20:23:28;25.00;;;22.52;;
36225;SDS011;22268;52.010;4.716;2023-05-07T20:25:54;24.52;;;22.10;;
36225;SDS011;22268;52.010;4.716;2023-05-07T20:28:19;26.17;;;22.85;;
36225;SDS011;22268;52.010;4.716;2023-05-07T20:30:44;24.25;;;21.67;;
36225;SDS011;22268;52.010;4.716;2023-05-07T20:33:09;26.80;;;22.92;;
36225;SDS011;22268;52.010;4.716;2023-05-07T20:35:35;26.12;;;22.70;;
36225;SDS011;22268;52.010;4.716;2023-05-07T20:38:00;27.00;;;24.15;;
36225;SDS011;22268;52.010;4.716;2023-05-07T20:40:25;27.40;;;24.55;;
36225;SDS011;22268;52.010;4.716;2023-05-07T20:42:51;28.40;;;25.27;;
36225;SDS011;22268;52.010;4.716;2023-05-07T20:45:16;27.30;;;24.48;;
36225;SDS011;22268;52.010;4.716;2023-05-07T20:47:41;28.23;;;25.23;;
36225;SDS011;22268;52.010;4.716;2023-05-07T20:50:06;29.85;;;26.20;;
36225;SDS011;22268;52.010;4.716;2023-05-07T20:52:32;30.95;;;26.15;;
36225;SDS011;22268;52.010;4.716;2023-05-07T20:54:57;28.38;;;24.90;;
36225;SDS011;22268;52.010;4.716;2023-05-07T20:57:22;30.65;;;27.37;;
36225;SDS011;22268;52.010;4.716;2023-05-07T20:59:47;32.20;;;28.80;;
36225;SDS011;22268;52.010;4.716;2023-05-07T21:02:13;39.58;;;30.25;;
36225;SDS011;22268;52.010;4.716;2023-05-07T21:04:38;33.38;;;29.75;;
36225;SDS011;22268;52.010;4.716;2023-05-07T21:07:03;32.50;;;29.00;;
36225;SDS011;22268;52.010;4.716;2023-05-07T21:09:28;34.63;;;30.23;;
36225;SDS011;22268;52.010;4.716;2023-05-07T21:11:53;35.05;;;28.55;;
36225;SDS011;22268;52.010;4.716;2023-05-07T21:14:19;36.28;;;31.20;;
36225;SDS011;22268;52.010;4.716;2023-05-07T21:16:44;37.78;;;31.37;;
36225;SDS011;22268;52.010;4.716;2023-05-07T21:19:09;41.45;;;36.75;;
36225;SDS011;22268;52.010;4.716;2023-05-07T21:21:34;43.38;;;37.55;;
36225;SDS011;22268;52.010;4.716;2023-05-07T21:24:00;44.75;;;36.28;;
36225;SDS011;22268;52.010;4.716;2023-05-07T21:26:25;44.08;;;36.53;;
36225;SDS011;22268;52.010;4.716;2023-05-07T21:28:50;49.50;;;41.72;;
36225;SDS011;22268;52.010;4.716;2023-05-07T21:31:16;49.00;;;41.45;;
36225;SDS011;22268;52.010;4.716;2023-05-07T21:33:41;48.95;;;39.08;;
36225;SDS011;22268;52.010;4.716;2023-05-07T21:36:07;48.70;;;43.70;;
36225;SDS011;22268;52.010;4.716;2023-05-07T21:38:32;55.15;;;45.12;;
36225;SDS011;22268;52.010;4.716;2023-05-07T21:40:58;55.70;;;46.70;;
36225;SDS011;22268;52.010;4.716;2023-05-07T21:43:23;54.65;;;45.40;;
36225;SDS011;22268;52.010;4.716;2023-05-07T21:45:48;49.10;;;42.73;;
36225;SDS011;22268;52.010;4.716;2023-05-07T21:48:14;62.58;;;50.05;;
36225;SDS011;22268;52.010;4.716;2023-05-07T21:50:39;57.25;;;48.42;;
36225;SDS011;22268;52.010;4.716;2023-05-07T21:53:04;63.25;;;53.40;;
36225;SDS011;22268;52.010;4.716;2023-05-07T21:55:29;66.30;;;53.70;;
36225;SDS011;22268;52.010;4.716;2023-05-07T21:57:55;75.45;;;54.65;;
36225;SDS011;22268;52.010;4.716;2023-05-07T22:00:20;62.47;;;50.67;;
36225;SDS011;22268;52.010;4.716;2023-05-07T22:02:47;54.45;;;47.67;;
36225;SDS011;22268;52.010;4.716;2023-05-07T22:05:12;61.67;;;49.97;;
36225;SDS011;22268;52.010;4.716;2023-05-07T22:07:37;63.27;;;50.37;;
36225;SDS011;22268;52.010;4.716;2023-05-07T22:10:03;55.50;;;46.22;;
36225;SDS011;22268;52.010;4.716;2023-05-07T22:12:28;59.15;;;46.92;;
36225;SDS011;22268;52.010;4.716;2023-05-07T22:14:53;64.50;;;49.58;;
36225;SDS011;22268;52.010;4.716;2023-05-07T22:17:18;54.50;;;47.55;;
36225;SDS011;22268;52.010;4.716;2023-05-07T22:19:44;55.88;;;46.25;;
36225;SDS011;22268;52.010;4.716;2023-05-07T22:22:09;49.93;;;44.80;;
36225;SDS011;22268;52.010;4.716;2023-05-07T22:24:34;51.70;;;46.13;;
36225;SDS011;22268;52.010;4.716;2023-05-07T22:26:59;49.63;;;43.83;;
36225;SDS011;22268;52.010;4.716;2023-05-07T22:29:24;49.33;;;43.30;;
36225;SDS011;22268;52.010;4.716;2023-05-07T22:31:50;48.13;;;41.78;;
36225;SDS011;22268;52.010;4.716;2023-05-07T22:34:15;47.60;;;41.08;;
36225;SDS011;22268;52.010;4.716;2023-05-07T22:36:40;47.72;;;40.85;;
36225;SDS011;22268;52.010;4.716;2023-05-07T22:39:05;45.35;;;40.55;;
36225;SDS011;22268;52.010;4.716;2023-05-07T22:41:33;39.95;;;35.92;;
36225;SDS011;22268;52.010;4.716;2023-05-07T22:43:58;43.20;;;38.80;;
36225;SDS011;22268;52.010;4.716;2023-05-07T22:46:24;47.65;;;40.95;;
36225;SDS011;22268;52.010;4.716;2023-05-07T22:48:49;47.58;;;42.38;;
36225;SDS011;22268;52.010;4.716;2023-05-07T22:51:15;47.97;;;40.60;;
36225;SDS011;22268;52.010;4.716;2023-05-07T22:53:40;43.00;;;38.63;;
36225;SDS011;22268;52.010;4.716;2023-05-07T22:56:05;41.17;;;36.13;;
36225;SDS011;22268;52.010;4.716;2023-05-07T22:58:31;49.10;;;43.63;;
36225;SDS011;22268;52.010;4.716;2023-05-07T23:00:56;58.00;;;48.50;;
36225;SDS011;22268;52.010;4.716;2023-05-07T23:03:21;53.50;;;45.67;;
36225;SDS011;22268;52.010;4.716;2023-05-07T23:05:47;59.30;;;48.10;;
36225;SDS011;22268;52.010;4.716;2023-05-07T23:08:12;55.90;;;46.42;;
36225;SDS011;22268;52.010;4.716;2023-05-07T23:10:37;47.17;;;40.80;;
36225;SDS011;22268;52.010;4.716;2023-05-07T23:13:02;49.40;;;42.47;;
36225;SDS011;22268;52.010;4.716;2023-05-07T23:15:27;47.60;;;42.55;;
36225;SDS011;22268;52.010;4.716;2023-05-07T23:17:52;42.42;;;36.72;;
36225;SDS011;22268;52.010;4.716;2023-05-07T23:20:18;40.75;;;35.67;;
36225;SDS011;22268;52.010;4.716;2023-05-07T23:22:43;42.58;;;37.58;;
36225;SDS011;22268;52.010;4.716;2023-05-07T23:25:08;48.60;;;40.90;;
36225;SDS011;22268;52.010;4.716;2023-05-07T23:27:33;46.80;;;41.80;;
36225;SDS011;22268;52.010;4.716;2023-05-07T23:29:59;46.72;;;39.08;;
36225;SDS011;22268;52.010;4.716;2023-05-07T23:32:24;43.70;;;38.92;;
36225;SDS011;22268;52.010;4.716;2023-05-07T23:34:49;52.97;;;45.50;;
36225;SDS011;22268;52.010;4.716;2023-05-07T23:37:15;64.85;;;50.05;;
36225;SDS011;22268;52.010;4.716;2023-05-07T23:39:40;62.95;;;51.33;;
36225;SDS011;22268;52.010;4.716;2023-05-07T23:42:05;56.75;;;49.17;;
36225;SDS011;22268;52.010;4.716;2023-05-07T23:44:30;73.55;;;55.95;;
36225;SDS011;22268;52.010;4.716;2023-05-07T23:46:56;78.07;;;58.72;;
36225;SDS011;22268;52.010;4.716;2023-05-07T23:49:21;72.40;;;58.80;;
36225;SDS011;22268;52.010;4.716;2023-05-07T23:51:46;87.53;;;67.20;;
36225;SDS011;22268;52.010;4.716;2023-05-07T23:54:11;68.68;;;54.47;;
36225;SDS011;22268;52.010;4.716;2023-05-07T23:56:37;76.40;;;58.83;;
36225;SDS011;22268;52.010;4.716;2023-05-07T23:59:02;111.93;;;77.75;;
